Etusivu
METAR-TAF:

METAR-TAF

Lentoasemat :

Kelibia, Tunisia

Leveyspiiri: 36-51N, Pituuspiiri: 011-05E, korkeus merenpinnasta: 29 m

Tämänhetkinen sää

Tämä raportti tehtiin 49 minuuttia sitten, kello 08.00 UTC
Tuuli 3 kn eri suunnista
Lämpötila 22°C
Kosteus 65%
Ilmanpaine 1016 hPa
Näkyvyys 10 km tai enemmän
Muutamia pilviä 3300 ft:n korkeudessa

METAR: DTTL 010800Z VRB03KT 9999 FEW033 22/15 Q1016

Aika: 09:49 (08:49 UTC)


TAF: puuttuu

Säähavainnot ja -ennusteet yli 4000 lentoasemalta (METAR- ja TAF-raportit).

Käytössä olevat sääasemat on merkitty karttaan keltaisilla ja punaisilla pisteillä.

Aseta hiiri pisteen päälle nähdäksesi sääaseman nimen.

Klikkaa sitten nähdäksesi säähavainnot ja -ennusteet.

Kartan vaihtaminen: klikkaa mustalla rastilla varustettuja vihreitä pisteitä, niin voit zoomata sisään; viivalla varustettua vihreää pistettä, niin voit zoomata ulos tai vihreitä nuolia, niin pääset viereisille kartoille.


METAR-TAF: